createdAt,value
2019-03-08T00:02:14.688Z,2.08
2019-03-08T00:04:42.117Z,2.50
2019-03-08T00:07:10.171Z,2.77
2019-03-08T00:09:37.289Z,2.90
2019-03-08T00:12:04.796Z,2.20
2019-03-08T00:14:31.978Z,2.30
2019-03-08T00:16:59.458Z,2.83
2019-03-08T00:19:26.762Z,2.75
2019-03-08T00:21:54.185Z,3.55
2019-03-08T00:24:21.326Z,4.10
2019-03-08T00:26:48.533Z,7.75
2019-03-08T00:29:16.174Z,4.10
2019-03-08T00:31:43.301Z,3.80
2019-03-08T00:34:11.092Z,3.62
2019-03-08T00:36:38.682Z,2.50
2019-03-08T00:39:05.975Z,3.65
2019-03-08T00:41:35.931Z,3.17
2019-03-08T00:44:03.312Z,3.80
2019-03-08T00:46:30.571Z,3.83
2019-03-08T00:48:57.965Z,3.52
2019-03-08T00:51:25.009Z,3.40
2019-03-08T00:53:54.419Z,3.58
2019-03-08T00:56:21.888Z,3.58
2019-03-08T00:58:49.256Z,3.45
2019-03-08T01:01:17.104Z,3.65
2019-03-08T01:03:44.583Z,3.87
2019-03-08T01:06:11.807Z,4.15
2019-03-08T01:08:39.257Z,3.85
2019-03-08T01:11:06.888Z,3.90
2019-03-08T01:13:34.335Z,3.90
2019-03-08T01:16:01.959Z,3.60
2019-03-08T01:18:29.393Z,3.83
2019-03-08T01:20:56.915Z,3.37
2019-03-08T01:23:24.147Z,2.77
2019-03-08T01:25:51.713Z,4.12
2019-03-08T01:28:19.335Z,3.10
2019-03-08T01:30:46.657Z,3.33
2019-03-08T01:33:14.076Z,4.00
2019-03-08T01:35:41.834Z,3.65
2019-03-08T01:38:09.461Z,3.75
2019-03-08T01:40:36.779Z,2.52
2019-03-08T01:43:04.755Z,4.00
2019-03-08T01:45:32.332Z,4.03
2019-03-08T01:47:59.703Z,3.95
2019-03-08T01:50:27.451Z,3.87
2019-03-08T01:52:55.052Z,4.20
2019-03-08T01:55:22.580Z,3.50
2019-03-08T01:57:50.091Z,3.70
2019-03-08T02:00:17.986Z,3.12
2019-03-08T02:02:45.511Z,3.52
2019-03-08T02:05:13.768Z,3.60
2019-03-08T02:07:41.288Z,3.20
2019-03-08T02:10:10.136Z,3.22
2019-03-08T02:12:37.372Z,2.20
2019-03-08T02:15:05.372Z,3.05
2019-03-08T02:17:32.728Z,2.70
2019-03-08T02:20:00.036Z,3.45
2019-03-08T02:22:28.355Z,3.15
2019-03-08T02:24:55.363Z,3.42
2019-03-08T02:27:22.456Z,3.27
2019-03-08T02:29:49.820Z,2.55
2019-03-08T02:32:17.267Z,2.85
2019-03-08T02:34:44.684Z,2.87
2019-03-08T02:37:11.862Z,2.85
2019-03-08T02:39:39.075Z,3.15
2019-03-08T02:42:06.096Z,2.95
2019-03-08T02:44:33.516Z,2.87
2019-03-08T02:47:01.279Z,3.00
2019-03-08T02:49:28.408Z,2.72
2019-03-08T02:51:55.614Z,3.00
2019-03-08T02:54:23.020Z,2.55
2019-03-08T02:56:50.487Z,3.27
2019-03-08T02:59:17.992Z,3.17
2019-03-08T03:01:45.154Z,2.85
2019-03-08T03:04:12.570Z,3.58
2019-03-08T03:06:39.955Z,2.77
2019-03-08T03:09:07.218Z,3.10
2019-03-08T03:11:36.220Z,3.58
2019-03-08T03:14:03.560Z,2.77
2019-03-08T03:16:30.975Z,3.00
2019-03-08T03:18:58.090Z,3.67
2019-03-08T03:21:25.382Z,3.35
2019-03-08T03:23:52.396Z,3.72
2019-03-08T03:26:20.094Z,3.83
2019-03-08T03:28:47.095Z,4.15
2019-03-08T03:31:14.116Z,4.10
2019-03-08T03:33:41.671Z,4.60
2019-03-08T03:36:08.794Z,4.22
2019-03-08T03:38:35.889Z,4.45
2019-03-08T03:41:03.141Z,3.90
2019-03-08T03:43:30.548Z,4.30
2019-03-08T03:45:58.010Z,3.85
2019-03-08T03:48:25.086Z,4.60
2019-03-08T03:50:52.363Z,3.72
2019-03-08T03:53:19.490Z,3.77
2019-03-08T03:55:46.634Z,4.10
2019-03-08T03:58:13.647Z,3.25
2019-03-08T04:00:41.347Z,3.47
2019-03-08T04:03:08.497Z,3.50
2019-03-08T04:05:35.830Z,2.98
2019-03-08T04:08:02.820Z,3.35
2019-03-08T04:10:29.923Z,3.12
2019-03-08T04:12:56.968Z,2.77
2019-03-08T04:15:24.062Z,2.58
2019-03-08T04:17:51.503Z,2.50
2019-03-08T04:20:18.730Z,2.20
2019-03-08T04:22:45.943Z,1.70
2019-03-08T04:25:13.290Z,1.50
2019-03-08T04:27:41.817Z,1.37
2019-03-08T04:30:12.051Z,2.02
2019-03-08T04:32:39.144Z,1.92
2019-03-08T04:35:06.414Z,1.98
2019-03-08T04:37:33.475Z,2.00
2019-03-08T04:40:00.713Z,1.95
2019-03-08T04:42:28.007Z,1.62
2019-03-08T04:44:55.031Z,1.98
2019-03-08T04:47:23.063Z,1.60
2019-03-08T04:49:50.131Z,1.60
2019-03-08T04:52:17.553Z,1.25
2019-03-08T04:54:45.458Z,1.57
2019-03-08T04:57:12.493Z,1.80
2019-03-08T04:59:39.596Z,1.55
2019-03-08T05:02:06.597Z,1.37
2019-03-08T05:04:33.703Z,0.82
2019-03-08T05:07:00.834Z,1.50
2019-03-08T05:09:28.024Z,1.52
2019-03-08T05:11:55.615Z,1.50
2019-03-08T05:14:22.991Z,1.77
2019-03-08T05:16:50.306Z,1.40
2019-03-08T05:19:17.723Z,1.17
2019-03-08T05:21:45.404Z,1.45
2019-03-08T05:24:12.370Z,1.57
2019-03-08T05:26:39.679Z,1.00
2019-03-08T05:29:06.764Z,0.90
2019-03-08T05:31:34.086Z,0.98
2019-03-08T05:34:01.747Z,0.88
2019-03-08T05:36:29.107Z,0.80
2019-03-08T05:38:56.449Z,0.80
2019-03-08T05:41:24.323Z,0.62
2019-03-08T05:43:51.612Z,0.57
2019-03-08T05:46:18.886Z,0.70
2019-03-08T05:48:46.540Z,0.50
2019-03-08T05:51:13.708Z,0.53
2019-03-08T05:53:40.835Z,0.50
2019-03-08T05:56:08.351Z,0.70
2019-03-08T05:58:35.854Z,0.57
2019-03-08T06:01:03.055Z,0.68
2019-03-08T06:03:30.587Z,1.02
2019-03-08T06:05:57.674Z,0.70
2019-03-08T06:08:24.738Z,1.20
2019-03-08T06:10:51.818Z,1.10
2019-03-08T06:13:19.202Z,1.95
2019-03-08T06:15:46.609Z,1.10
2019-03-08T06:18:13.717Z,1.15
2019-03-08T06:20:42.226Z,1.20
2019-03-08T06:23:09.203Z,0.93
2019-03-08T06:25:36.299Z,1.37
2019-03-08T06:28:03.984Z,1.00
2019-03-08T06:30:31.872Z,0.98
2019-03-08T06:32:59.136Z,1.22
2019-03-08T06:35:26.175Z,1.75
2019-03-08T06:37:53.466Z,1.30
2019-03-08T06:40:21.602Z,1.60
2019-03-08T06:42:48.839Z,1.77
2019-03-08T06:45:16.803Z,2.12
2019-03-08T06:47:44.776Z,2.40
2019-03-08T06:50:12.804Z,2.00
2019-03-08T06:52:40.023Z,1.75
2019-03-08T06:55:08.147Z,1.92
2019-03-08T06:57:36.373Z,2.42
2019-03-08T07:00:28.029Z,3.05
2019-03-08T07:02:55.249Z,2.55
2019-03-08T07:05:22.433Z,2.85
2019-03-08T07:07:49.575Z,3.33
2019-03-08T07:10:16.878Z,3.10
2019-03-08T07:12:43.954Z,3.40
2019-03-08T07:15:11.277Z,3.35
2019-03-08T07:17:38.339Z,3.62
2019-03-08T07:20:14.922Z,3.25
2019-03-08T07:23:00.138Z,3.22
2019-03-08T07:25:51.470Z,3.85
2019-03-08T07:28:50.029Z,3.60
2019-03-08T07:31:27.911Z,2.72
2019-03-08T07:34:16.787Z,3.85
2019-03-08T07:36:52.823Z,4.28
2019-03-08T07:39:41.451Z,4.78
2019-03-08T07:42:28.413Z,4.28
2019-03-08T07:45:05.570Z,3.67
2019-03-08T07:47:41.322Z,3.62
2019-03-08T07:50:21.506Z,5.35
2019-03-08T07:53:08.917Z,3.55
2019-03-08T07:55:54.471Z,4.87
2019-03-08T07:58:29.131Z,3.87
2019-03-08T08:01:04.857Z,4.17
2019-03-08T08:03:50.967Z,4.95
2019-03-08T08:06:37.839Z,4.55
2019-03-08T08:09:28.335Z,4.08
2019-03-08T08:12:01.419Z,4.35
2019-03-08T08:14:39.796Z,4.65
2019-03-08T08:17:23.849Z,4.97
2019-03-08T08:20:16.398Z,4.08
2019-03-08T08:22:50.327Z,4.03
2019-03-08T08:25:25.210Z,5.65
2019-03-08T08:28:05.516Z,5.37
2019-03-08T08:30:44.187Z,4.10
2019-03-08T08:33:25.198Z,4.92
2019-03-08T08:35:58.676Z,4.62
2019-03-08T08:38:44.698Z,3.08
2019-03-08T08:41:36.998Z,3.42
2019-03-08T08:44:12.430Z,4.00
2019-03-08T08:46:48.802Z,2.72
2019-03-08T08:49:38.402Z,4.15
2019-03-08T08:52:23.921Z,4.35
2019-03-08T08:55:20.326Z,4.28
2019-03-08T08:58:05.826Z,3.85
2019-03-08T09:00:51.865Z,3.62
2019-03-08T09:03:37.512Z,4.03
2019-03-08T09:06:33.544Z,3.00
2019-03-08T09:09:24.827Z,3.47
2019-03-08T09:12:20.399Z,3.08
2019-03-08T09:14:58.341Z,3.83
2019-03-08T09:17:35.602Z,4.30
2019-03-08T09:20:13.069Z,3.58
2019-03-08T09:22:48.128Z,3.30
2019-03-08T09:25:33.463Z,4.12
2019-03-08T09:28:19.283Z,3.17
2019-03-08T09:31:05.103Z,4.55
2019-03-08T09:33:52.114Z,2.95
2019-03-08T09:36:39.967Z,3.00
2019-03-08T09:39:38.742Z,3.02
2019-03-08T09:42:31.387Z,3.25
2019-03-08T09:45:16.802Z,3.70
2019-03-08T09:48:06.112Z,3.42
2019-03-08T09:50:53.059Z,3.80
2019-03-08T09:53:55.008Z,2.85
2019-03-08T09:56:51.263Z,3.05
2019-03-08T09:59:27.491Z,2.83
2019-03-08T10:02:01.982Z,2.98
2019-03-08T10:04:40.375Z,2.72
2019-03-08T10:07:13.747Z,3.40
2019-03-08T10:10:09.683Z,3.00
2019-03-08T10:12:58.243Z,4.12
2019-03-08T10:15:41.191Z,2.92
2019-03-08T10:18:19.022Z,3.22
2019-03-08T10:21:06.750Z,2.98
2019-03-08T10:23:42.275Z,2.85
2019-03-08T10:26:19.555Z,2.37
2019-03-08T10:29:05.463Z,2.35
2019-03-08T10:31:54.209Z,3.12
2019-03-08T10:34:29.229Z,3.17
2019-03-08T10:37:05.518Z,2.45
2019-03-08T10:39:52.422Z,3.67
2019-03-08T10:42:32.046Z,2.83
2019-03-08T10:45:04.924Z,3.27
2019-03-08T10:47:55.967Z,3.75
2019-03-08T10:50:42.239Z,3.40
2019-03-08T10:53:29.107Z,2.95
2019-03-08T10:56:04.799Z,2.90
2019-03-08T10:58:44.208Z,2.52
2019-03-08T11:01:29.760Z,2.60
2019-03-08T11:04:19.294Z,3.40
2019-03-08T11:07:01.795Z,2.37
2019-03-08T11:09:48.998Z,2.15
2019-03-08T11:12:38.408Z,2.67
2019-03-08T11:15:24.698Z,2.40
2019-03-08T11:18:01.210Z,2.40
2019-03-08T11:20:53.901Z,1.95
2019-03-08T11:23:40.035Z,3.22
2019-03-08T11:26:21.389Z,2.35
2019-03-08T11:29:08.445Z,3.08
2019-03-08T11:32:00.222Z,2.15
2019-03-08T11:34:52.918Z,2.35
2019-03-08T11:37:45.329Z,2.20
2019-03-08T11:40:36.639Z,2.87
2019-03-08T11:43:32.464Z,3.22
2019-03-08T11:46:08.754Z,2.27
2019-03-08T11:48:44.796Z,2.80
2019-03-08T11:51:20.570Z,1.62
2019-03-08T11:53:59.745Z,2.90
2019-03-08T11:56:55.830Z,2.40
2019-03-08T11:59:36.422Z,3.37
2019-03-08T12:02:19.896Z,2.42
2019-03-08T12:05:09.181Z,2.72
2019-03-08T12:07:42.856Z,2.90
2019-03-08T12:10:29.815Z,2.77
2019-03-08T12:13:11.723Z,2.77
2019-03-08T12:16:05.047Z,3.08
2019-03-08T12:18:39.933Z,2.50
2019-03-08T12:21:29.318Z,2.72
2019-03-08T12:24:25.699Z,2.92
2019-03-08T12:26:57.692Z,2.42
2019-03-08T12:29:35.431Z,2.62
2019-03-08T12:32:23.580Z,3.00
2019-03-08T12:35:10.352Z,3.10
2019-03-08T12:37:50.459Z,2.92
2019-03-08T12:40:29.322Z,2.80
2019-03-08T12:43:22.003Z,2.77
2019-03-08T12:45:57.339Z,2.58
2019-03-08T12:48:43.164Z,2.20
2019-03-08T12:51:24.185Z,3.10
2019-03-08T12:54:20.284Z,2.20
2019-03-08T12:57:03.634Z,2.30
2019-03-08T12:59:51.348Z,2.40
2019-03-08T13:02:53.525Z,2.58
2019-03-08T13:05:32.084Z,2.95
2019-03-08T13:08:16.523Z,3.10
2019-03-08T13:10:43.627Z,2.67
2019-03-08T13:13:10.744Z,3.22
2019-03-08T13:15:38.000Z,3.27
2019-03-08T13:18:05.289Z,2.40
2019-03-08T13:20:32.761Z,2.25
2019-03-08T13:23:00.426Z,2.42
2019-03-08T13:25:28.589Z,2.33
2019-03-08T13:27:56.004Z,1.80
2019-03-08T13:30:23.591Z,1.65
2019-03-08T13:32:50.622Z,1.90
2019-03-08T13:35:18.128Z,2.40
2019-03-08T13:37:45.544Z,2.25
2019-03-08T13:40:13.537Z,2.27
2019-03-08T13:42:40.754Z,2.10
2019-03-08T13:45:10.639Z,1.67
2019-03-08T13:47:37.771Z,1.87
2019-03-08T13:50:05.413Z,2.30
2019-03-08T13:52:32.768Z,1.95
2019-03-08T13:55:01.159Z,2.02
2019-03-08T13:57:29.030Z,3.87
2019-03-08T13:59:56.159Z,2.30
2019-03-08T14:02:23.448Z,2.02
2019-03-08T14:04:50.816Z,3.83
2019-03-08T14:07:20.756Z,2.25
2019-03-08T14:09:48.082Z,2.40
2019-03-08T14:12:15.215Z,2.33
2019-03-08T14:14:42.723Z,2.15
2019-03-08T14:17:11.099Z,2.20
2019-03-08T14:19:38.700Z,2.33
2019-03-08T14:22:06.254Z,3.08
2019-03-08T14:24:33.413Z,2.22
2019-03-08T14:27:00.850Z,2.20
2019-03-08T14:29:27.986Z,2.08
2019-03-08T14:32:00.839Z,2.90
2019-03-08T14:34:27.991Z,2.83
2019-03-08T14:36:55.202Z,1.67
2019-03-08T14:39:22.424Z,1.70
2019-03-08T14:42:03.930Z,2.52
2019-03-08T14:44:56.768Z,2.35
2019-03-08T14:47:29.340Z,2.25
2019-03-08T14:49:59.278Z,2.17
2019-03-08T14:52:26.140Z,2.27
2019-03-08T14:54:53.402Z,2.00
2019-03-08T14:57:27.265Z,2.70
2019-03-08T14:59:53.120Z,2.08
2019-03-08T15:02:20.107Z,2.17
2019-03-08T15:04:47.512Z,2.20
2019-03-08T15:07:15.184Z,2.00
2019-03-08T15:09:42.397Z,2.27
2019-03-08T15:12:16.317Z,3.30
2019-03-08T15:14:38.540Z,2.27
2019-03-08T15:17:09.139Z,2.58
2019-03-08T15:19:36.227Z,2.05
2019-03-08T15:22:03.854Z,2.62
2019-03-08T15:24:38.055Z,3.05
2019-03-08T15:26:59.995Z,3.08
2019-03-08T15:29:27.000Z,2.55
2019-03-08T15:31:54.575Z,2.55
2019-03-08T15:34:21.866Z,2.45
2019-03-08T15:36:49.070Z,2.98
2019-03-08T15:39:16.374Z,2.02
2019-03-08T15:41:43.567Z,2.67
2019-03-08T15:44:10.548Z,2.92
2019-03-08T15:46:38.103Z,2.60
2019-03-08T15:49:05.123Z,3.15
2019-03-08T15:51:32.664Z,2.30
2019-03-08T15:54:00.017Z,2.90
2019-03-08T15:56:27.813Z,2.05
2019-03-08T15:58:55.113Z,2.20
2019-03-08T16:01:22.758Z,2.60
2019-03-08T16:03:50.395Z,2.42
2019-03-08T16:06:19.542Z,2.20
2019-03-08T16:08:46.882Z,2.00
2019-03-08T16:11:14.110Z,1.67
2019-03-08T16:13:41.560Z,2.22
2019-03-08T16:16:08.834Z,2.20
2019-03-08T16:18:35.916Z,1.90
2019-03-08T16:21:03.494Z,1.77
2019-03-08T16:23:30.559Z,2.30
2019-03-08T16:25:57.671Z,2.22
2019-03-08T16:28:24.943Z,2.10
2019-03-08T16:30:58.911Z,2.20
2019-03-08T16:33:37.467Z,2.62
2019-03-08T16:36:39.726Z,2.77
2019-03-08T16:39:27.933Z,2.20
2019-03-08T16:42:08.900Z,3.27
2019-03-08T16:44:50.731Z,1.80
2019-03-08T16:47:36.494Z,3.58
2019-03-08T16:50:12.740Z,2.80
2019-03-08T16:53:11.893Z,2.20
2019-03-08T16:55:58.363Z,3.00
2019-03-08T16:58:46.923Z,2.27
2019-03-08T17:01:23.131Z,2.75
2019-03-08T17:04:10.298Z,2.52
2019-03-08T17:06:57.314Z,2.45
2019-03-08T17:09:37.295Z,2.62
2019-03-08T17:12:18.711Z,2.40
2019-03-08T17:15:05.668Z,2.90
2019-03-08T17:17:46.088Z,2.40
2019-03-08T17:20:24.169Z,3.37
2019-03-08T17:23:11.867Z,2.70
2019-03-08T17:25:53.694Z,2.70
2019-03-08T17:28:33.875Z,2.30
2019-03-08T17:31:26.403Z,3.05
2019-03-08T17:34:18.983Z,2.80
2019-03-08T17:37:00.826Z,2.75
2019-03-08T17:39:47.922Z,2.50
2019-03-08T17:42:33.228Z,3.37
2019-03-08T17:45:18.894Z,4.28
2019-03-08T17:48:12.186Z,2.50
2019-03-08T17:50:55.157Z,4.40
2019-03-08T17:53:40.558Z,2.62
2019-03-08T17:56:17.581Z,2.95
2019-03-08T17:59:07.240Z,3.08
2019-03-08T18:01:54.439Z,2.95
2019-03-08T18:04:31.220Z,2.55
2019-03-08T18:07:11.365Z,1.95
2019-03-08T18:10:07.392Z,2.12
2019-03-08T18:13:12.436Z,2.30
2019-03-08T18:15:51.554Z,2.58
2019-03-08T18:18:35.672Z,2.35
2019-03-08T18:21:08.705Z,2.87
2019-03-08T18:23:54.036Z,3.77
2019-03-08T18:26:29.542Z,5.80
2019-03-08T18:29:14.894Z,7.67
2019-03-08T18:32:08.129Z,6.70
2019-03-08T18:34:59.131Z,10.85
2019-03-08T18:37:46.225Z,12.37
2019-03-08T18:40:33.109Z,7.62
2019-03-08T18:43:16.795Z,9.30
2019-03-08T18:45:56.935Z,13.05
2019-03-08T18:48:44.945Z,16.27
2019-03-08T18:51:34.743Z,11.18
2019-03-08T18:54:17.115Z,9.35
2019-03-08T18:56:53.510Z,12.45
2019-03-08T18:59:43.470Z,12.45
2019-03-08T19:02:29.734Z,13.03
2019-03-08T19:05:13.352Z,9.68
2019-03-08T19:07:59.843Z,5.42
2019-03-08T19:10:51.480Z,4.08
2019-03-08T19:13:41.942Z,4.80
2019-03-08T19:16:28.858Z,3.60
2019-03-08T19:19:13.886Z,2.60
2019-03-08T19:21:57.567Z,3.50
2019-03-08T19:25:00.294Z,3.20
2019-03-08T19:27:54.599Z,3.22
2019-03-08T19:30:45.478Z,3.12
2019-03-08T19:33:47.097Z,10.32
2019-03-08T19:36:25.324Z,10.82
2019-03-08T19:39:01.781Z,7.30
2019-03-08T19:41:45.154Z,4.37
2019-03-08T19:44:45.081Z,4.62
2019-03-08T19:47:32.485Z,5.37
2019-03-08T19:50:35.944Z,5.92
2019-03-08T19:53:16.030Z,4.67
2019-03-08T19:56:03.426Z,6.03
2019-03-08T19:58:59.405Z,4.83
2019-03-08T20:01:53.224Z,5.80
2019-03-08T20:04:32.625Z,4.03
2019-03-08T20:07:18.335Z,3.70
2019-03-08T20:10:06.480Z,3.12
2019-03-08T20:12:57.082Z,4.87
2019-03-08T20:15:32.730Z,5.50
2019-03-08T20:18:20.440Z,5.85
2019-03-08T20:21:06.391Z,6.45
2019-03-08T20:23:54.113Z,4.08
2019-03-08T20:26:57.318Z,4.12
2019-03-08T20:29:37.512Z,9.53
2019-03-08T20:32:17.303Z,5.17
2019-03-08T20:35:19.116Z,4.22
2019-03-08T20:38:09.534Z,4.22
2019-03-08T20:40:47.805Z,3.72
2019-03-08T20:43:20.066Z,6.53
2019-03-08T20:45:58.516Z,4.28
2019-03-08T20:48:26.886Z,4.05
2019-03-08T20:50:54.287Z,5.65
2019-03-08T20:53:21.636Z,3.77
2019-03-08T20:55:49.063Z,4.70
2019-03-08T20:58:16.256Z,5.40
2019-03-08T21:00:44.031Z,4.83
2019-03-08T21:03:11.319Z,3.42
2019-03-08T21:05:38.695Z,3.72
2019-03-08T21:08:05.880Z,3.77
2019-03-08T21:10:33.294Z,4.42
2019-03-08T21:13:00.664Z,3.60
2019-03-08T21:15:28.187Z,3.25
2019-03-08T21:17:55.552Z,3.50
2019-03-08T21:20:22.730Z,3.00
2019-03-08T21:22:50.282Z,3.95
2019-03-08T21:25:17.770Z,2.42
2019-03-08T21:27:45.570Z,3.50
2019-03-08T21:30:16.087Z,3.40
2019-03-08T21:32:43.392Z,4.97
2019-03-08T21:35:11.423Z,3.60
2019-03-08T21:37:39.192Z,3.65
2019-03-08T21:40:07.047Z,3.20
2019-03-08T21:42:34.181Z,3.37
2019-03-08T21:45:01.442Z,2.72
2019-03-08T21:47:29.670Z,3.05
2019-03-08T21:49:56.964Z,3.30
2019-03-08T21:52:24.446Z,3.12
2019-03-08T21:54:51.949Z,2.42
2019-03-08T21:57:19.045Z,2.45
2019-03-08T21:59:46.228Z,2.45
2019-03-08T22:02:13.447Z,3.60
2019-03-08T22:04:44.285Z,3.20
2019-03-08T22:07:12.407Z,3.15
2019-03-08T22:10:02.601Z,3.95
2019-03-08T22:12:30.788Z,3.22
2019-03-08T22:14:57.893Z,4.20
2019-03-08T22:17:25.566Z,2.83
2019-03-08T22:19:52.659Z,6.10
2019-03-08T22:22:19.721Z,4.95
2019-03-08T22:24:46.726Z,2.47
2019-03-08T22:27:13.727Z,3.55
2019-03-08T22:29:41.529Z,2.90
2019-03-08T22:32:09.025Z,2.65
2019-03-08T22:34:36.106Z,3.42
2019-03-08T22:37:04.470Z,2.27
2019-03-08T22:39:31.934Z,2.85
2019-03-08T22:41:59.661Z,3.00
2019-03-08T22:44:26.874Z,3.47
2019-03-08T22:46:54.427Z,3.92
2019-03-08T22:49:21.745Z,3.77
2019-03-08T22:51:51.892Z,4.65
2019-03-08T22:54:19.371Z,2.60
2019-03-08T22:56:46.451Z,3.35
2019-03-08T22:59:13.575Z,3.50
2019-03-08T23:01:49.494Z,5.25
2019-03-08T23:04:16.908Z,3.40
2019-03-08T23:06:44.031Z,4.33
2019-03-08T23:09:12.566Z,2.95
2019-03-08T23:11:40.890Z,3.90
2019-03-08T23:14:08.491Z,4.47
2019-03-08T23:16:35.886Z,3.67
2019-03-08T23:19:03.549Z,3.08
2019-03-08T23:21:30.952Z,4.35
2019-03-08T23:23:58.055Z,3.87
2019-03-08T23:26:25.096Z,4.62
2019-03-08T23:29:03.273Z,4.95
2019-03-08T23:31:34.317Z,6.10
2019-03-08T23:34:02.941Z,4.62
2019-03-08T23:36:30.393Z,6.22
2019-03-08T23:38:57.676Z,4.00
2019-03-08T23:41:25.894Z,5.78
2019-03-08T23:43:54.066Z,5.25
2019-03-08T23:46:22.018Z,4.70
2019-03-08T23:48:49.597Z,5.80
2019-03-08T23:51:17.307Z,6.03
2019-03-08T23:53:45.262Z,6.33
2019-03-08T23:56:13.141Z,7.42
2019-03-08T23:58:40.883Z,5.60
